Time;durP1;ratioP1;P1;durP2;ratioP2;P2;SDS_P1;SDS_P2;PMS_P1;PMS_P2;Temp;Humidity;BMP_temperature;BMP_pressure;BME280_temperature;BME280_humidity;BME280_pressure;Samples;Min_cycle;Max_cycle;Signal;HPM_P1;HPM_P2
2023/01/06 00:00:43;;;;;;;2.20;1.33;;;2.60;42.50;;;;;;5013292;28;20524;-51
2023/01/06 00:03:10;;;;;;;1.63;1.40;;;2.50;42.80;;;;;;5011716;28;20457;-52
2023/01/06 00:05:36;;;;;;;1.93;1.60;;;2.60;40.80;;;;;;5008332;28;20471;-52
2023/01/06 00:08:03;;;;;;;3.23;1.67;;;2.60;39.90;;;;;;5012043;28;20868;-52
2023/01/06 00:10:31;;;;;;;1.77;1.40;;;2.70;41.60;;;;;;4999558;28;20462;-52
2023/01/06 00:12:57;;;;;;;4.10;1.77;;;2.60;45.80;;;;;;4999315;28;20501;-52
2023/01/06 00:15:24;;;;;;;2.70;1.80;;;2.70;42.40;;;;;;5009507;28;20844;-52
2023/01/06 00:17:50;;;;;;;5.60;1.77;;;2.70;43.80;;;;;;5001507;28;20493;-52
2023/01/06 00:20:17;;;;;;;4.53;2.17;;;2.70;44.50;;;;;;5005887;28;20547;-52
2023/01/06 00:22:44;;;;;;;4.57;2.17;;;2.70;46.30;;;;;;5011422;28;20458;-51
2023/01/06 00:25:11;;;;;;;2.80;2.00;;;2.70;45.50;;;;;;5003836;28;20490;-51
2023/01/06 00:27:39;;;;;;;2.53;2.00;;;2.70;42.50;;;;;;5008276;28;20488;-52
2023/01/06 00:30:07;;;;;;;2.77;1.90;;;2.70;42.60;;;;;;5001175;28;20522;-52
2023/01/06 00:32:34;;;;;;;2.23;2.03;;;2.80;41.70;;;;;;4999349;28;20527;-52
2023/01/06 00:35:01;;;;;;;3.20;2.10;;;2.80;41.10;;;;;;5008636;28;20501;-52
2023/01/06 00:37:27;;;;;;;4.60;2.57;;;2.80;40.00;;;;;;5001882;28;20482;-52
2023/01/06 00:39:54;;;;;;;2.40;2.20;;;2.90;41.00;;;;;;5006576;28;20507;-52
2023/01/06 00:42:21;;;;;;;2.93;1.97;;;2.90;43.50;;;;;;5001072;28;20465;-51
2023/01/06 00:44:49;;;;;;;3.37;1.90;;;2.90;47.20;;;;;;5012243;28;20453;-51
2023/01/06 00:47:16;;;;;;;3.10;2.23;;;2.90;45.50;;;;;;5011563;28;20540;-52
2023/01/06 00:49:43;;;;;;;4.77;2.00;;;2.90;42.90;;;;;;5003125;28;20512;-52
2023/01/06 00:52:09;;;;;;;4.17;2.40;;;2.90;44.40;;;;;;5006048;28;20537;-51
2023/01/06 00:54:36;;;;;;;3.07;2.20;;;2.90;45.50;;;;;;5011750;28;20493;-51
2023/01/06 00:57:05;;;;;;;2.63;2.23;;;2.90;47.50;;;;;;5011494;28;20492;-52
2023/01/06 00:59:31;;;;;;;1.90;1.70;;;2.80;46.70;;;;;;5012032;28;20519;-53
2023/01/06 01:01:59;;;;;;;2.20;1.87;;;2.90;45.10;;;;;;5010507;28;20467;-52
2023/01/06 01:04:28;;;;;;;2.70;2.20;;;2.90;45.60;;;;;;4999463;28;20468;-51
2023/01/06 01:06:54;;;;;;;5.70;2.47;;;2.90;46.80;;;;;;5000093;28;21203;-52
2023/01/06 01:09:23;;;;;;;7.13;2.20;;;2.90;43.50;;;;;;4992538;28;20454;-51
2023/01/06 01:14:35;;;;;;;3.73;1.93;;;2.80;39.90;;;;;;5011665;28;20558;-52
2023/01/06 01:17:03;;;;;;;3.90;2.13;;;2.90;43.30;;;;;;5009781;28;20868;-52
2023/01/06 01:19:30;;;;;;;2.70;2.27;;;2.90;41.40;;;;;;5009006;28;20866;-52
2023/01/06 01:21:57;;;;;;;2.03;1.57;;;2.90;42.50;;;;;;5003503;28;20465;-52
2023/01/06 01:24:24;;;;;;;2.63;1.93;;;2.80;41.80;;;;;;5002879;28;20551;-52
2023/01/06 01:26:51;;;;;;;4.57;2.03;;;2.90;40.80;;;;;;5005851;28;20490;-52
2023/01/06 01:29:18;;;;;;;2.20;1.90;;;2.90;41.70;;;;;;5007686;28;20809;-51
2023/01/06 01:31:45;;;;;;;3.03;1.87;;;2.90;40.70;;;;;;5009712;28;20465;-51
2023/01/06 01:34:15;;;;;;;2.63;1.83;;;2.90;40.10;;;;;;5011315;28;20492;-51
2023/01/06 01:36:43;;;;;;;3.20;2.20;;;2.90;41.70;;;;;;5010661;28;20514;-51
2023/01/06 01:39:11;;;;;;;3.20;1.83;;;2.90;42.50;;;;;;5001846;28;20559;-51
2023/01/06 01:41:38;;;;;;;2.97;2.17;;;2.90;41.30;;;;;;4997982;28;20461;-51
2023/01/06 01:44:38;;;;;;;3.87;2.23;;;2.90;40.80;;;;;;4996153;28;20561;-52
2023/01/06 01:47:04;;;;;;;3.37;1.90;;;3.00;43.70;;;;;;4999338;28;20482;-51
2023/01/06 01:49:35;;;;;;;2.13;2.03;;;3.00;44.20;;;;;;5011701;28;20519;-51
2023/01/06 01:52:02;;;;;;;2.47;1.43;;;3.10;45.60;;;;;;4992743;28;20450;-52
2023/01/06 01:54:34;;;;;;;4.40;1.83;;;3.10;46.60;;;;;;5002226;28;20544;-52
2023/01/06 01:57:05;;;;;;;3.40;1.70;;;3.20;47.80;;;;;;5006162;28;20576;-51
2023/01/06 01:59:34;;;;;;;4.40;1.70;;;3.30;50.10;;;;;;5006329;28;20489;-52
2023/01/06 02:02:00;;;;;;;3.00;1.90;;;3.30;55.90;;;;;;5002283;28;20460;-51
2023/01/06 02:04:28;;;;;;;3.43;1.73;;;3.40;58.40;;;;;;5006140;28;20461;-52
2023/01/06 02:06:57;;;;;;;2.80;1.70;;;3.40;59.60;;;;;;5010053;28;20623;-51
2023/01/06 02:09:27;;;;;;;2.93;1.90;;;3.40;60.50;;;;;;5015082;28;20452;-51
2023/01/06 02:11:55;;;;;;;5.70;2.20;;;3.50;62.10;;;;;;5003123;28;20856;-51
2023/01/06 02:14:24;;;;;;;5.00;2.40;;;3.60;62.10;;;;;;5004044;28;20992;-51
2023/01/06 02:17:09;;;;;;;6.87;1.97;;;3.60;64.00;;;;;;5001427;28;20530;-52
2023/01/06 02:20:04;;;;;;;3.10;1.60;;;3.60;68.10;;;;;;5001026;28;20885;-52
2023/01/06 02:22:57;;;;;;;5.27;2.13;;;3.70;71.10;;;;;;5008304;28;20464;-52
2023/01/06 02:25:57;;;;;;;2.97;2.10;;;3.70;76.80;;;;;;5000732;28;20463;-52
2023/01/06 02:28:44;;;;;;;4.83;2.17;;;3.80;84.20;;;;;;5002149;28;20484;-52
2023/01/06 02:31:32;;;;;;;3.77;2.07;;;3.80;93.00;;;;;;5001999;28;20457;-52
2023/01/06 02:34:06;;;;;;;2.70;1.73;;;3.90;98.00;;;;;;5007066;28;20493;-51
2023/01/06 02:36:41;;;;;;;7.70;3.20;;;4.00;99.90;;;;;;5003500;28;20539;-52
2023/01/06 02:39:22;;;;;;;3.23;1.93;;;4.00;99.90;;;;;;5001553;28;20469;-52
2023/01/06 02:41:58;;;;;;;3.43;1.60;;;4.10;99.90;;;;;;5004119;28;20551;-52
2023/01/06 02:44:31;;;;;;;2.30;1.70;;;4.10;99.90;;;;;;5003451;28;20980;-52
2023/01/06 02:47:13;;;;;;;6.87;1.50;;;4.10;99.90;;;;;;4997772;28;21018;-52
2023/01/06 02:49:45;;;;;;;3.90;1.90;;;4.20;99.90;;;;;;4999037;28;20478;-51
2023/01/06 02:52:21;;;;;;;4.00;1.97;;;4.10;99.90;;;;;;5002690;28;20526;-52
2023/01/06 02:54:55;;;;;;;2.50;1.70;;;4.10;99.90;;;;;;5005499;28;20485;-51
2023/01/06 02:57:27;;;;;;;6.47;1.90;;;4.20;99.90;;;;;;5009152;28;21100;-51
2023/01/06 03:00:01;;;;;;;3.37;1.73;;;4.20;99.90;;;;;;5009917;28;20461;-51
2023/01/06 03:02:31;;;;;;;2.77;1.60;;;4.20;99.90;;;;;;5010438;28;20474;-52
2023/01/06 03:05:02;;;;;;;3.33;1.70;;;4.20;99.90;;;;;;4997779;28;20517;-52
2023/01/06 03:07:30;;;;;;;3.50;1.87;;;4.30;99.90;;;;;;5010313;28;20484;-52
2023/01/06 03:09:58;;;;;;;4.20;1.90;;;4.30;99.90;;;;;;5013094;28;20465;-52
2023/01/06 03:12:31;;;;;;;2.80;1.60;;;4.30;99.90;;;;;;5010017;28;20513;-52
2023/01/06 03:14:58;;;;;;;11.10;1.50;;;4.30;99.90;;;;;;5004975;28;21292;-52
2023/01/06 03:17:25;;;;;;;5.00;1.50;;;4.30;99.90;;;;;;5006189;28;20539;-52
2023/01/06 03:19:54;;;;;;;5.10;1.87;;;4.30;99.90;;;;;;5019371;22;20505;-56
2023/01/06 03:22:21;;;;;;;5.80;1.80;;;4.30;99.90;;;;;;5009919;28;20466;-56
2023/01/06 03:24:48;;;;;;;2.17;1.47;;;4.30;99.90;;;;;;5010840;28;20462;-56
2023/01/06 03:27:17;;;;;;;4.80;1.70;;;4.30;99.90;;;;;;5004416;28;20470;-55
2023/01/06 03:29:44;;;;;;;4.20;1.73;;;4.30;99.90;;;;;;5008698;28;20895;-55
2023/01/06 03:32:18;;;;;;;4.60;1.87;;;4.30;99.90;;;;;;5013947;28;20805;-56
2023/01/06 03:34:57;;;;;;;4.80;1.60;;;4.30;99.90;;;;;;5017181;28;21072;-56
2023/01/06 03:37:31;;;;;;;4.43;1.57;;;4.30;99.90;;;;;;5012595;28;20461;-56
2023/01/06 03:40:03;;;;;;;1.97;1.50;;;4.30;99.90;;;;;;5014883;28;20547;-56
2023/01/06 03:45:32;;;;;;;3.53;1.40;;;4.30;99.90;;;;;;5013204;28;20452;-56
2023/01/06 03:48:07;;;;;;;4.10;1.57;;;4.20;99.90;;;;;;5011215;28;20460;-56
2023/01/06 03:50:40;;;;;;;5.40;1.93;;;4.10;99.90;;;;;;5011253;28;20465;-56
2023/01/06 03:53:22;;;;;;;6.13;2.30;;;4.10;99.90;;;;;;5010001;28;20467;-56
2023/01/06 03:55:54;;;;;;;4.77;2.73;;;4.10;99.90;;;;;;4993818;28;20446;-55
2023/01/06 03:58:21;;;;;;;1.93;1.83;;;4.10;99.90;;;;;;5000144;28;20566;-56
2023/01/06 04:00:48;;;;;;;5.40;2.27;;;4.10;99.90;;;;;;5004566;28;20513;-55
2023/01/06 04:03:16;;;;;;;5.70;1.90;;;4.20;99.90;;;;;;5012295;28;20903;-56
2023/01/06 04:05:44;;;;;;;2.53;1.60;;;4.20;99.90;;;;;;5012031;28;20891;-56
2023/01/06 04:08:10;;;;;;;2.13;1.90;;;4.20;99.90;;;;;;5012428;28;20447;-55
2023/01/06 04:10:37;;;;;;;2.70;1.37;;;4.20;99.90;;;;;;5004198;28;20458;-55
2023/01/06 04:13:03;;;;;;;4.13;1.77;;;4.30;99.90;;;;;;5000320;28;20445;-56
2023/01/06 04:15:29;;;;;;;1.93;1.37;;;4.30;99.90;;;;;;5010673;28;20936;-56
2023/01/06 04:17:56;;;;;;;2.27;1.60;;;4.30;99.90;;;;;;5012551;28;20210;-55
2023/01/06 04:20:24;;;;;;;6.13;2.30;;;4.30;99.90;;;;;;5007816;28;20499;-56
2023/01/06 04:22:55;;;;;;;1.80;1.53;;;4.30;99.90;;;;;;5008216;28;20469;-55
2023/01/06 04:25:21;;;;;;;5.63;1.87;;;4.40;99.90;;;;;;5012520;28;20469;-55
2023/01/06 04:27:49;;;;;;;3.43;1.90;;;4.40;99.90;;;;;;5010555;28;20450;-55
2023/01/06 04:30:15;;;;;;;3.97;1.60;;;4.30;99.90;;;;;;5006450;28;20477;-56
2023/01/06 04:32:42;;;;;;;4.87;2.70;;;4.40;99.90;;;;;;5008045;28;20461;-57
2023/01/06 04:35:09;;;;;;;3.13;1.97;;;4.40;99.90;;;;;;5012422;28;20486;-55
2023/01/06 04:37:36;;;;;;;7.33;3.50;;;4.40;99.90;;;;;;5010924;28;20459;-55
2023/01/06 04:40:06;;;;;;;2.40;1.93;;;4.40;99.90;;;;;;5006869;28;20497;-56
2023/01/06 04:43:03;;;;;;;6.70;1.90;;;4.40;99.90;;;;;;5005279;28;20528;-56
2023/01/06 04:45:20;;;;;;;1.37;1.27;;;4.40;99.90;;;;;;5009154;28;20461;-54
2023/01/06 04:47:46;;;;;;;8.53;1.23;;;4.50;99.90;;;;;;5008467;28;20462;-55
2023/01/06 04:50:13;;;;;;;3.07;1.33;;;4.50;99.90;;;;;;5009990;28;21026;-55
2023/01/06 04:52:39;;;;;;;3.80;1.70;;;4.50;99.90;;;;;;5003607;28;20485;-55
2023/01/06 04:55:08;;;;;;;2.93;1.43;;;4.50;99.90;;;;;;5006181;28;20992;-56
2023/01/06 04:57:35;;;;;;;10.60;9.50;;;4.40;99.90;;;;;;5008341;28;20499;-55
2023/01/06 05:00:02;;;;;;;2.30;2.10;;;4.50;99.90;;;;;;5014845;28;20486;-56
2023/01/06 05:02:28;;;;;;;5.70;1.50;;;4.50;99.90;;;;;;5005631;28;20472;-55
2023/01/06 05:04:55;;;;;;;2.53;2.30;;;4.50;99.90;;;;;;5010532;28;21196;-55
2023/01/06 05:07:21;;;;;;;3.23;1.60;;;4.50;99.90;;;;;;5018293;28;20469;-55
2023/01/06 05:09:48;;;;;;;1.87;1.53;;;4.50;99.90;;;;;;5009987;28;20885;-55
2023/01/06 05:12:16;;;;;;;4.73;1.73;;;4.50;99.90;;;;;;5012256;28;20473;-56
2023/01/06 05:14:42;;;;;;;4.27;1.47;;;4.50;99.90;;;;;;5010572;28;20486;-56
2023/01/06 05:17:09;;;;;;;2.77;1.40;;;4.50;99.90;;;;;;5009202;28;20450;-56
2023/01/06 05:19:36;;;;;;;1.77;1.30;;;4.50;99.90;;;;;;5009813;28;20494;-55
2023/01/06 05:22:02;;;;;;;4.30;2.03;;;4.40;99.90;;;;;;5012008;28;20464;-54
2023/01/06 05:24:29;;;;;;;4.17;2.50;;;4.40;99.90;;;;;;5005777;28;20509;-55
2023/01/06 05:26:55;;;;;;;7.87;1.93;;;4.50;99.90;;;;;;5010926;28;20484;-55
2023/01/06 05:29:23;;;;;;;3.90;1.53;;;4.40;99.90;;;;;;5008224;28;20485;-55
2023/01/06 05:31:50;;;;;;;4.50;1.70;;;4.40;99.90;;;;;;5007102;28;20468;-56
2023/01/06 05:34:16;;;;;;;4.37;2.00;;;4.40;99.90;;;;;;5005430;28;20483;-55
2023/01/06 05:36:43;;;;;;;2.63;1.63;;;4.40;99.90;;;;;;5004010;28;20466;-55
2023/01/06 05:39:09;;;;;;;4.10;2.13;;;4.40;99.90;;;;;;5009937;28;20476;-55
2023/01/06 05:41:36;;;;;;;5.57;1.77;;;4.40;99.90;;;;;;5006822;28;20555;-55
2023/01/06 05:44:03;;;;;;;3.07;2.50;;;4.40;97.40;;;;;;5011562;28;20461;-55
2023/01/06 05:46:31;;;;;;;3.40;1.67;;;4.40;97.30;;;;;;5012551;28;20520;-55
2023/01/06 05:48:59;;;;;;;4.77;1.80;;;4.40;93.40;;;;;;5015947;28;20477;-55
2023/01/06 05:51:26;;;;;;;3.80;1.93;;;4.40;96.20;;;;;;5010605;28;20520;-55
2023/01/06 05:53:52;;;;;;;9.07;3.40;;;4.40;96.20;;;;;;5015234;28;20454;-55
2023/01/06 05:56:20;;;;;;;4.80;1.97;;;4.40;90.50;;;;;;5012656;28;20540;-55
2023/01/06 05:58:49;;;;;;;6.97;2.03;;;4.40;82.40;;;;;;5014062;28;20512;-54
2023/01/06 06:01:19;;;;;;;6.53;1.93;;;4.40;75.50;;;;;;5013643;28;20520;-55
2023/01/06 06:03:47;;;;;;;2.80;1.87;;;4.40;57.10;;;;;;5013029;28;20954;-55
2023/01/06 06:06:14;;;;;;;3.87;1.80;;;4.30;52.40;;;;;;5013024;28;20457;-55
2023/01/06 06:08:41;;;;;;;4.67;2.40;;;4.20;44.30;;;;;;5005028;28;20490;-56
2023/01/06 06:11:09;;;;;;;6.13;2.70;;;4.20;36.10;;;;;;5011549;28;20465;-56
2023/01/06 06:13:36;;;;;;;5.80;1.83;;;4.20;24.80;;;;;;5013099;28;20457;-55
2023/01/06 06:16:05;;;;;;;3.93;2.27;;;4.20;72.70;;;;;;5012139;28;20547;-54
2023/01/06 06:18:32;;;;;;;6.20;2.20;;;4.10;99.90;;;;;;4999149;28;20520;-55
2023/01/06 06:21:03;;;;;;;3.23;2.17;;;4.10;99.90;;;;;;5010388;28;20459;-56
2023/01/06 06:23:30;;;;;;;3.30;2.57;;;4.10;99.90;;;;;;5003465;28;20470;-55
2023/01/06 06:25:57;;;;;;;3.30;2.17;;;4.10;99.90;;;;;;5010690;28;20820;-55
2023/01/06 06:28:24;;;;;;;3.70;2.40;;;4.10;99.90;;;;;;5013522;28;20544;-55
2023/01/06 06:30:50;;;;;;;5.07;2.90;;;4.00;99.90;;;;;;5012110;28;20462;-55
2023/01/06 06:33:17;;;;;;;10.93;2.57;;;4.00;99.90;;;;;;5013891;28;20454;-55
2023/01/06 06:35:44;;;;;;;5.13;2.10;;;4.10;99.90;;;;;;5009220;28;20487;-55
2023/01/06 06:38:12;;;;;;;5.50;2.80;;;4.10;99.90;;;;;;5003766;28;20458;-55
2023/01/06 06:40:38;;;;;;;4.03;2.40;;;4.10;99.90;;;;;;5012979;28;20522;-55
2023/01/06 06:43:05;;;;;;;2.50;2.10;;;4.10;99.90;;;;;;5017936;28;20465;-56
2023/01/06 06:45:31;;;;;;;4.07;1.90;;;4.10;99.90;;;;;;5009535;28;21033;-55
2023/01/06 06:47:58;;;;;;;4.20;2.00;;;4.10;99.90;;;;;;5003169;28;20953;-55
2023/01/06 06:50:25;;;;;;;3.13;1.90;;;4.10;99.90;;;;;;5012456;28;20458;-55
2023/01/06 06:52:51;;;;;;;4.10;2.23;;;4.10;99.90;;;;;;5009004;28;20951;-55
2023/01/06 06:55:19;;;;;;;4.20;2.30;;;4.20;99.90;;;;;;5007373;28;20899;-54
2023/01/06 06:57:46;;;;;;;3.07;2.40;;;4.20;99.90;;;;;;5012173;28;20885;-56
2023/01/06 07:00:13;;;;;;;5.40;2.00;;;4.20;99.90;;;;;;5010279;28;20481;-55
2023/01/06 07:02:40;;;;;;;6.10;3.57;;;4.20;99.90;;;;;;5014768;28;20466;-55
2023/01/06 07:05:07;;;;;;;6.90;3.50;;;4.30;99.90;;;;;;5010742;28;20492;-55
2023/01/06 07:07:33;;;;;;;3.50;2.30;;;4.20;99.90;;;;;;5005834;28;20466;-56
2023/01/06 07:10:00;;;;;;;3.40;2.37;;;4.30;99.90;;;;;;5003171;28;20485;-55
2023/01/06 07:12:28;;;;;;;3.53;2.20;;;4.30;99.90;;;;;;5010768;28;20461;-55
2023/01/06 07:14:54;;;;;;;10.30;2.80;;;4.30;99.90;;;;;;5003721;28;21078;-55
2023/01/06 07:17:26;;;;;;;6.97;2.73;;;4.40;99.90;;;;;;5009454;28;20512;-56
2023/01/06 07:19:52;;;;;;;5.13;2.73;;;4.40;99.90;;;;;;4986628;28;20559;-54
2023/01/06 07:22:19;;;;;;;3.03;2.53;;;4.40;99.90;;;;;;4998311;28;20497;-55
2023/01/06 07:24:45;;;;;;;4.50;2.40;;;4.40;99.90;;;;;;5009675;28;20520;-54
2023/01/06 07:27:12;;;;;;;3.07;2.70;;;4.40;99.90;;;;;;5013643;28;20884;-56
2023/01/06 07:29:40;;;;;;;5.23;3.10;;;4.40;99.90;;;;;;5001397;28;20893;-56
2023/01/06 07:32:06;;;;;;;10.20;3.67;;;4.50;99.90;;;;;;4998159;28;20524;-56
2023/01/06 07:34:33;;;;;;;4.50;2.87;;;4.40;99.90;;;;;;4996761;28;20490;-55
2023/01/06 07:37:00;;;;;;;3.70;2.57;;;4.50;99.90;;;;;;4990433;28;20502;-55
2023/01/06 07:39:26;;;;;;;4.17;2.63;;;4.50;99.90;;;;;;4998399;28;20919;-55
2023/01/06 07:41:53;;;;;;;3.67;2.60;;;4.50;99.90;;;;;;4996593;28;20549;-55
2023/01/06 07:44:19;;;;;;;2.20;2.03;;;4.60;99.90;;;;;;4995524;28;20454;-55
2023/01/06 07:46:47;;;;;;;5.73;3.10;;;4.50;99.90;;;;;;5008937;28;20524;-56
2023/01/06 07:49:14;;;;;;;5.77;2.63;;;4.60;99.90;;;;;;5020325;28;20466;-56
2023/01/06 07:51:40;;;;;;;3.30;3.00;;;4.60;99.90;;;;;;5011989;28;20944;-55
2023/01/06 07:54:07;;;;;;;3.23;2.90;;;4.60;99.90;;;;;;5010711;28;20523;-55
2023/01/06 07:56:34;;;;;;;4.47;3.37;;;4.70;99.90;;;;;;5011896;28;20512;-55
2023/01/06 07:59:00;;;;;;;5.40;2.80;;;4.70;99.90;;;;;;5012035;28;20494;-55
2023/01/06 08:01:27;;;;;;;10.27;6.67;;;4.70;99.90;;;;;;5011921;28;20470;-56
2023/01/06 08:03:55;;;;;;;6.07;4.80;;;4.70;99.90;;;;;;5004691;28;20466;-55
2023/01/06 08:06:21;;;;;;;5.87;3.67;;;4.80;99.90;;;;;;5007337;28;20462;-55
2023/01/06 08:08:48;;;;;;;4.53;3.77;;;4.80;99.90;;;;;;5002422;28;20525;-55
2023/01/06 08:11:14;;;;;;;6.83;4.00;;;4.90;99.90;;;;;;5002308;28;20458;-56
2023/01/06 08:13:41;;;;;;;5.47;3.90;;;4.90;99.90;;;;;;5006830;28;20458;-56
2023/01/06 08:16:09;;;;;;;8.57;5.10;;;4.90;99.90;;;;;;5001809;28;21040;-56
2023/01/06 08:18:36;;;;;;;8.13;5.30;;;4.90;99.90;;;;;;5003738;28;20498;-56
2023/01/06 08:21:06;;;;;;;5.70;5.20;;;5.00;99.90;;;;;;5009891;28;20886;-56
2023/01/06 08:23:33;;;;;;;4.00;3.60;;;5.00;99.90;;;;;;5005494;28;20463;-56
2023/01/06 08:26:04;;;;;;;8.53;4.67;;;5.00;99.90;;;;;;5007411;28;20446;-55
2023/01/06 08:28:31;;;;;;;5.73;4.53;;;5.10;99.90;;;;;;5009410;28;20579;-56
2023/01/06 08:30:58;;;;;;;7.50;4.00;;;5.10;99.90;;;;;;5009748;28;20458;-57
2023/01/06 08:33:26;;;;;;;7.57;4.10;;;5.10;99.90;;;;;;4996843;28;20490;-57
2023/01/06 08:35:57;;;;;;;5.67;5.10;;;5.20;99.90;;;;;;5009246;28;20494;-57
2023/01/06 08:38:25;;;;;;;7.07;5.00;;;5.20;99.90;;;;;;5010799;28;20481;-57
2023/01/06 08:40:52;;;;;;;6.40;5.43;;;5.20;99.90;;;;;;5010769;28;20466;-56
2023/01/06 08:43:18;;;;;;;10.77;5.40;;;5.30;99.90;;;;;;4996662;28;20904;-57
2023/01/06 08:45:45;;;;;;;6.13;4.63;;;5.30;99.90;;;;;;5003361;28;20462;-57
2023/01/06 08:48:12;;;;;;;10.23;5.50;;;5.30;99.90;;;;;;5010174;28;20471;-57
2023/01/06 08:50:38;;;;;;;7.03;4.57;;;5.40;99.90;;;;;;5002097;28;20966;-58
2023/01/06 08:53:05;;;;;;;9.20;5.60;;;5.40;99.90;;;;;;5010050;28;20818;-58
2023/01/06 08:55:33;;;;;;;12.53;5.50;;;5.40;99.90;;;;;;5009420;28;20515;-58
2023/01/06 08:58:00;;;;;;;8.30;6.53;;;5.50;99.90;;;;;;5010599;28;20470;-56
2023/01/06 09:00:27;;;;;;;6.90;5.10;;;5.50;99.90;;;;;;5007032;28;21029;-57
2023/01/06 09:02:53;;;;;;;6.57;5.87;;;5.60;99.90;;;;;;5006214;28;20840;-57
2023/01/06 09:05:20;;;;;;;13.80;6.50;;;5.60;99.90;;;;;;5005785;28;20466;-57
2023/01/06 09:07:47;;;;;;;10.07;6.67;;;5.70;99.90;;;;;;5009978;28;20532;-57
2023/01/06 09:10:13;;;;;;;10.77;7.10;;;5.70;99.90;;;;;;5009696;28;20493;-56
2023/01/06 09:12:41;;;;;;;11.63;8.37;;;5.70;99.90;;;;;;5004893;28;20457;-58
2023/01/06 09:15:08;;;;;;;13.83;7.83;;;5.80;99.90;;;;;;5010107;28;20466;-57
2023/01/06 09:17:35;;;;;;;19.57;9.00;;;5.80;99.90;;;;;;4998802;28;20465;-58
2023/01/06 09:20:01;;;;;;;13.90;7.87;;;5.90;99.90;;;;;;5021349;23;20553;-52
2023/01/06 09:22:28;;;;;;;9.83;8.33;;;5.90;99.90;;;;;;4998547;28;20525;-51
2023/01/06 09:24:55;;;;;;;13.27;8.87;;;6.00;99.90;;;;;;5002406;28;20519;-52
2023/01/06 09:27:21;;;;;;;13.43;9.07;;;6.00;99.90;;;;;;5004125;28;20520;-51
2023/01/06 09:29:49;;;;;;;13.30;9.40;;;6.10;99.90;;;;;;4996405;28;20488;-51
2023/01/06 09:32:16;;;;;;;14.17;9.10;;;6.10;99.90;;;;;;4983470;28;20473;-51
2023/01/06 09:34:43;;;;;;;14.50;9.30;;;6.20;99.90;;;;;;4983509;28;20465;-52
2023/01/06 09:37:09;;;;;;;17.43;9.30;;;6.20;99.90;;;;;;4992086;28;20482;-52
2023/01/06 09:39:36;;;;;;;11.20;9.43;;;6.20;99.90;;;;;;4991567;28;20486;-52
2023/01/06 09:42:29;;;;;;;16.23;10.27;;;6.30;99.90;;;;;;4988805;28;20466;-52
2023/01/06 09:45:00;;;;;;;14.83;8.53;;;6.30;99.90;;;;;;4990268;28;20521;-51
2023/01/06 09:47:31;;;;;;;15.50;9.90;;;6.30;99.90;;;;;;4980453;28;20525;-51
2023/01/06 09:50:07;;;;;;;13.47;9.27;;;6.40;99.90;;;;;;4975990;28;20576;-50
2023/01/06 09:52:39;;;;;;;14.20;10.20;;;6.40;99.90;;;;;;4975901;28;20471;-51
2023/01/06 09:55:11;;;;;;;17.33;11.07;;;6.50;99.90;;;;;;4976625;28;20964;-51
2023/01/06 09:57:42;;;;;;;23.00;10.37;;;6.50;99.90;;;;;;4981708;28;21087;-51
2023/01/06 10:00:22;;;;;;;25.67;11.73;;;6.60;99.90;;;;;;4973657;28;20486;-51
2023/01/06 10:02:48;;;;;;;20.33;10.67;;;6.60;99.90;;;;;;4982436;28;20467;-52
2023/01/06 10:05:19;;;;;;;11.37;9.00;;;6.70;99.90;;;;;;4985718;28;20977;-52
2023/01/06 10:07:53;;;;;;;13.87;9.10;;;6.70;99.90;;;;;;4978828;28;20538;-52
2023/01/06 10:10:33;;;;;;;14.87;9.07;;;6.80;99.90;;;;;;4979488;28;20483;-52
2023/01/06 10:13:10;;;;;;;16.13;9.40;;;6.80;99.90;;;;;;4984715;28;20516;-52
2023/01/06 10:15:47;;;;;;;14.80;9.43;;;6.80;99.90;;;;;;4980192;28;20467;-52
2023/01/06 10:18:29;;;;;;;15.37;9.20;;;6.90;99.90;;;;;;4981777;28;20977;-51
2023/01/06 10:21:06;;;;;;;13.13;9.10;;;6.90;99.90;;;;;;4979920;28;20952;-51
2023/01/06 10:24:00;;;;;;;9.83;7.67;;;7.00;99.90;;;;;;4977206;28;21037;-51
2023/01/06 10:26:30;;;;;;;14.97;8.70;;;7.00;99.90;;;;;;4981407;28;20539;-51
2023/01/06 10:29:02;;;;;;;20.60;9.73;;;7.10;99.90;;;;;;4994863;28;20497;-51
2023/01/06 10:31:34;;;;;;;12.73;8.60;;;7.10;99.90;;;;;;4993191;28;20529;-51
2023/01/06 10:34:02;;;;;;;18.23;8.87;;;7.20;99.90;;;;;;4990489;28;20489;-50
2023/01/06 10:36:31;;;;;;;11.63;8.33;;;7.30;99.90;;;;;;4993810;28;21005;-51
2023/01/06 10:39:00;;;;;;;13.07;8.50;;;7.30;99.90;;;;;;4983635;28;20520;-51
2023/01/06 10:41:40;;;;;;;11.47;8.40;;;7.30;99.90;;;;;;4985028;28;20808;-51
2023/01/06 10:44:10;;;;;;;12.97;9.20;;;7.40;99.90;;;;;;4986015;28;20964;-51
2023/01/06 10:46:38;;;;;;;11.80;7.90;;;7.40;99.90;;;;;;4975641;28;20458;-51
2023/01/06 10:49:10;;;;;;;12.90;8.30;;;7.50;99.90;;;;;;4988785;28;21008;-51
2023/01/06 10:51:39;;;;;;;9.57;7.67;;;7.50;99.90;;;;;;4981013;28;20473;-51
2023/01/06 10:54:10;;;;;;;14.07;8.60;;;7.50;99.90;;;;;;4986549;28;20847;-51
2023/01/06 10:56:39;;;;;;;12.30;8.23;;;7.50;99.90;;;;;;4985019;28;20482;-51
2023/01/06 10:59:07;;;;;;;13.83;9.00;;;7.50;99.90;;;;;;4986107;28;20486;-51
2023/01/06 11:01:36;;;;;;;13.83;7.97;;;7.50;99.90;;;;;;4985836;28;20465;-52
2023/01/06 11:04:10;;;;;;;11.07;6.73;;;7.50;99.90;;;;;;4993559;28;20460;-53
2023/01/06 11:06:39;;;;;;;12.50;7.23;;;7.50;99.90;;;;;;4999472;28;21060;-50
2023/01/06 11:09:22;;;;;;;9.40;7.30;;;7.60;99.90;;;;;;4990020;28;20560;-51
2023/01/06 11:11:50;;;;;;;9.57;7.37;;;7.60;99.90;;;;;;4995357;28;20528;-51
2023/01/06 11:14:19;;;;;;;7.60;6.47;;;7.60;99.90;;;;;;4991155;28;20466;-51
2023/01/06 11:16:55;;;;;;;7.63;6.50;;;7.70;99.90;;;;;;4991612;28;20581;-51
2023/01/06 11:19:32;;;;;;;7.10;6.37;;;7.70;99.90;;;;;;4997162;28;20593;-51
2023/01/06 11:21:59;;;;;;;10.63;7.43;;;7.70;99.90;;;;;;4990967;28;20521;-51
2023/01/06 11:24:26;;;;;;;7.97;6.20;;;7.70;99.90;;;;;;4989640;28;20462;-50
2023/01/06 11:26:55;;;;;;;14.53;7.30;;;7.80;99.90;;;;;;4998247;28;20869;-51
2023/01/06 11:29:28;;;;;;;10.13;6.40;;;7.80;99.90;;;;;;4990568;28;20480;-51
2023/01/06 11:31:55;;;;;;;8.57;6.67;;;7.80;99.90;;;;;;4998334;28;20461;-51
2023/01/06 11:34:27;;;;;;;9.17;6.40;;;7.80;99.90;;;;;;5006121;28;20535;-51
2023/01/06 11:36:54;;;;;;;10.27;6.30;;;7.80;99.90;;;;;;5005488;28;20485;-53
2023/01/06 11:39:28;;;;;;;8.17;6.33;;;7.90;99.90;;;;;;4996319;28;20533;-51
2023/01/06 11:41:57;;;;;;;11.30;6.50;;;7.90;99.90;;;;;;4996414;28;20466;-51
2023/01/06 11:44:31;;;;;;;7.93;6.57;;;7.90;99.90;;;;;;5009258;28;20469;-52
2023/01/06 11:47:00;;;;;;;10.83;6.63;;;7.90;99.90;;;;;;4998158;28;20833;-51
2023/01/06 11:49:32;;;;;;;9.00;6.60;;;7.90;99.90;;;;;;4997141;28;20512;-51
2023/01/06 11:52:01;;;;;;;10.23;7.47;;;7.90;99.90;;;;;;4989319;28;20531;-51
2023/01/06 11:54:34;;;;;;;10.10;6.73;;;7.90;99.90;;;;;;4985073;28;20462;-50
2023/01/06 11:57:17;;;;;;;10.63;6.67;;;8.00;99.90;;;;;;4999248;28;20486;-52
2023/01/06 11:59:54;;;;;;;9.20;6.70;;;8.00;99.90;;;;;;4970886;28;20480;-52
2023/01/06 12:02:27;;;;;;;8.37;6.90;;;8.10;99.90;;;;;;4992826;28;20465;-53
2023/01/06 12:04:56;;;;;;;7.80;6.30;;;8.10;99.90;;;;;;4979626;28;20460;-51
2023/01/06 12:07:29;;;;;;;7.10;6.27;;;8.20;99.90;;;;;;4998328;28;20461;-52
2023/01/06 12:09:59;;;;;;;8.33;6.63;;;8.20;99.90;;;;;;4984854;28;20544;-51
2023/01/06 12:12:27;;;;;;;8.53;6.70;;;8.20;99.90;;;;;;4997134;28;20469;-51
2023/01/06 12:14:54;;;;;;;8.03;5.60;;;8.20;99.90;;;;;;4993787;28;20518;-51
2023/01/06 12:17:34;;;;;;;8.23;6.30;;;8.30;99.90;;;;;;4987679;28;20552;-51
2023/01/06 12:20:07;;;;;;;13.50;8.00;;;8.30;99.90;;;;;;4991241;28;20497;-51
2023/01/06 12:22:39;;;;;;;11.07;6.30;;;8.30;99.90;;;;;;4992474;28;20463;-51
2023/01/06 12:25:13;;;;;;;7.17;5.30;;;8.30;99.90;;;;;;4991342;28;20466;-51
2023/01/06 12:27:44;;;;;;;6.50;5.17;;;8.40;99.90;;;;;;4990970;28;20518;-51
2023/01/06 12:30:18;;;;;;;11.63;6.50;;;8.40;99.90;;;;;;5001231;28;20486;-51
2023/01/06 12:32:48;;;;;;;12.17;6.13;;;8.50;99.90;;;;;;4985290;28;20471;-51
2023/01/06 12:35:20;;;;;;;12.30;8.10;;;8.50;99.90;;;;;;4994041;28;20470;-52
2023/01/06 12:37:51;;;;;;;9.40;5.60;;;8.50;99.90;;;;;;5004269;28;20574;-52
2023/01/06 12:40:26;;;;;;;5.10;4.60;;;8.50;99.90;;;;;;5005596;28;20494;-52
2023/01/06 12:43:00;;;;;;;10.33;4.93;;;8.60;99.90;;;;;;4998282;28;20467;-51
2023/01/06 12:45:36;;;;;;;5.70;4.40;;;8.50;99.90;;;;;;5001941;28;20466;-52
2023/01/06 12:48:11;;;;;;;5.20;4.17;;;8.60;99.90;;;;;;4994646;28;20462;-55
2023/01/06 12:50:42;;;;;;;6.37;4.43;;;8.60;99.90;;;;;;4991771;28;20862;-51
2023/01/06 12:53:13;;;;;;;6.30;4.77;;;8.60;99.90;;;;;;4984000;28;21520;-52
2023/01/06 12:55:46;;;;;;;3.93;3.63;;;8.70;99.90;;;;;;4994992;28;21026;-52
2023/01/06 12:58:23;;;;;;;5.17;3.37;;;8.70;99.90;;;;;;4991199;28;20556;-51
2023/01/06 13:00:54;;;;;;;6.40;3.87;;;8.70;99.90;;;;;;5003785;28;20470;-51
2023/01/06 13:03:46;;;;;;;4.90;3.27;;;8.70;99.90;;;;;;4992249;28;20498;-52
2023/01/06 13:06:29;;;;;;;15.23;3.50;;;8.80;99.90;;;;;;4995445;28;20875;-53
2023/01/06 13:09:09;;;;;;;8.83;6.00;;;8.80;99.90;;;;;;4986037;28;20490;-51
2023/01/06 13:11:48;;;;;;;6.73;5.67;;;8.90;99.90;;;;;;4989541;28;20462;-51
2023/01/06 13:14:21;;;;;;;4.47;3.37;;;8.90;99.90;;;;;;4983703;28;21196;-51